Time;durP1;ratioP1;P1;durP2;ratioP2;P2;SDS_P1;SDS_P2;PMS_P1;PMS_P2;Temp;Humidity;BMP_temperature;BMP_pressure;BME280_temperature;BME280_humidity;BME280_pressure;Samples;Min_cycle;Max_cycle;Signal;HPM_P1;HPM_P2
2021/07/29 00:00:40;;;;;;;1.85;1.23;;;19.10;90.10;;;;;;4994028;28;20023;-80
2021/07/29 00:03:06;;;;;;;2.03;1.20;;;19.10;90.10;;;;;;5008575;28;20399;-80
2021/07/29 00:05:34;;;;;;;3.38;1.50;;;19.10;90.10;;;;;;5013672;28;20033;-79
2021/07/29 00:08:00;;;;;;;4.25;1.42;;;19.20;90.00;;;;;;5001740;28;20026;-80
2021/07/29 00:10:29;;;;;;;1.67;1.20;;;19.20;89.80;;;;;;5010811;28;20460;-85
2021/07/29 00:12:55;;;;;;;5.90;1.48;;;19.20;89.60;;;;;;5014641;28;20064;-84
2021/07/29 00:15:21;;;;;;;2.40;1.40;;;19.20;89.40;;;;;;5014525;28;20117;-81
2021/07/29 00:20:17;;;;;;;2.60;1.42;;;19.20;88.70;;;;;;5016666;28;20026;-81
2021/07/29 00:22:44;;;;;;;4.10;1.15;;;19.30;88.60;;;;;;5017484;28;20303;-79
2021/07/29 00:25:13;;;;;;;4.15;1.23;;;19.20;88.70;;;;;;5015916;28;20045;-79
2021/07/29 00:27:39;;;;;;;3.03;1.70;;;19.20;89.30;;;;;;5015009;28;20125;-79
2021/07/29 00:30:06;;;;;;;3.47;1.20;;;19.20;89.60;;;;;;5011186;28;20030;-80
2021/07/29 00:32:32;;;;;;;3.65;1.38;;;19.20;89.70;;;;;;5013675;28;20084;-83
2021/07/29 00:35:02;;;;;;;2.15;1.05;;;19.10;89.90;;;;;;5003715;28;20026;-83
2021/07/29 00:37:27;;;;;;;1.60;1.10;;;19.20;89.80;;;;;;4996974;28;20132;-83
2021/07/29 00:39:53;;;;;;;2.55;1.23;;;19.20;89.50;;;;;;5013576;28;20054;-83
2021/07/29 00:42:18;;;;;;;4.35;1.50;;;19.10;89.40;;;;;;5015014;28;20030;-84
2021/07/29 00:44:44;;;;;;;4.20;1.27;;;19.10;89.60;;;;;;5013036;28;20034;-83
2021/07/29 00:47:11;;;;;;;2.03;1.30;;;19.00;89.90;;;;;;5013528;28;20041;-82
2021/07/29 00:49:37;;;;;;;4.78;1.30;;;19.00;89.80;;;;;;5013290;28;20112;-82
2021/07/29 00:52:03;;;;;;;2.53;1.20;;;18.90;89.80;;;;;;5013209;28;20046;-83
2021/07/29 00:54:29;;;;;;;2.85;1.50;;;19.00;89.90;;;;;;5012834;28;20063;-87
2021/07/29 00:56:56;;;;;;;2.42;1.35;;;19.00;89.90;;;;;;5012582;28;20124;-93
2021/07/29 00:59:22;;;;;;;1.42;1.10;;;19.00;89.80;;;;;;5012947;28;20489;-92
2021/07/29 01:01:48;;;;;;;2.47;1.30;;;19.00;89.90;;;;;;5012697;28;20038;-93
2021/07/29 01:04:14;;;;;;;3.55;1.20;;;19.00;89.90;;;;;;5013078;28;20109;-93
2021/07/29 01:06:40;;;;;;;3.10;1.30;;;19.00;89.90;;;;;;5012393;28;20029;-92
2021/07/29 01:09:10;;;;;;;3.08;1.50;;;19.00;89.80;;;;;;5012315;28;20076;-92
2021/07/29 01:11:37;;;;;;;3.00;1.25;;;19.00;90.20;;;;;;5012550;28;20022;-93
2021/07/29 01:14:02;;;;;;;1.98;1.30;;;19.00;90.10;;;;;;5001939;28;20030;-93
2021/07/29 01:16:28;;;;;;;2.63;1.50;;;19.00;90.00;;;;;;5009179;28;20125;-93
2021/07/29 01:18:55;;;;;;;1.52;1.30;;;19.00;90.20;;;;;;5013411;28;20022;-93
2021/07/29 01:21:21;;;;;;;1.90;1.20;;;19.00;90.30;;;;;;5013576;28;20076;-93
2021/07/29 01:23:46;;;;;;;3.85;1.50;;;19.00;90.40;;;;;;5012916;28;20022;-91
2021/07/29 01:26:12;;;;;;;2.17;1.60;;;18.90;90.50;;;;;;5014517;28;20374;-92
2021/07/29 01:28:38;;;;;;;2.00;1.30;;;18.90;90.60;;;;;;5012536;28;20034;-93
2021/07/29 01:31:04;;;;;;;1.95;1.70;;;18.90;90.80;;;;;;5014275;28;20022;-93
2021/07/29 01:33:31;;;;;;;2.33;1.60;;;18.90;90.80;;;;;;5012012;28;20025;-92
2021/07/29 01:35:56;;;;;;;4.47;1.60;;;18.90;90.70;;;;;;5012683;28;20037;-93
2021/07/29 01:38:22;;;;;;;5.10;1.48;;;18.90;90.70;;;;;;5014318;28;20052;-93
2021/07/29 01:40:47;;;;;;;3.25;1.58;;;18.90;90.70;;;;;;5013924;28;20081;-92
2021/07/29 01:43:13;;;;;;;2.45;1.55;;;18.80;90.80;;;;;;5014257;28;20042;-92
2021/07/29 01:45:38;;;;;;;1.48;1.30;;;18.90;90.80;;;;;;5012416;28;20378;-91
2021/07/29 01:48:04;;;;;;;1.80;1.23;;;18.80;90.90;;;;;;5013041;28;20026;-90
2021/07/29 01:50:30;;;;;;;2.95;1.50;;;18.80;90.80;;;;;;5012714;28;20022;-92
2021/07/29 01:52:57;;;;;;;2.75;1.80;;;18.90;90.80;;;;;;5012600;28;20026;-90
2021/07/29 01:55:23;;;;;;;4.88;1.52;;;18.90;91.00;;;;;;5013161;28;20471;-91
2021/07/29 01:57:49;;;;;;;2.08;1.25;;;18.90;90.70;;;;;;5012877;28;20036;-92
2021/07/29 02:00:15;;;;;;;2.28;1.40;;;18.90;90.80;;;;;;5014027;28;20389;-92
2021/07/29 02:02:40;;;;;;;3.03;1.42;;;18.80;90.80;;;;;;5011665;28;20132;-92
2021/07/29 02:05:06;;;;;;;3.75;1.70;;;18.80;90.90;;;;;;5013493;28;20058;-92
2021/07/29 02:07:32;;;;;;;1.75;1.25;;;18.70;90.90;;;;;;5013184;28;20505;-91
2021/07/29 02:09:58;;;;;;;5.50;1.58;;;18.70;90.90;;;;;;5012890;28;20077;-91
2021/07/29 02:12:23;;;;;;;3.63;1.48;;;18.70;91.00;;;;;;5012598;28;20164;-91
2021/07/29 02:14:49;;;;;;;3.63;1.38;;;18.70;91.00;;;;;;5011838;28;20476;-92
2021/07/29 02:17:18;;;;;;;3.88;1.50;;;18.80;91.00;;;;;;5016202;28;20113;-92
2021/07/29 02:19:43;;;;;;;3.08;1.50;;;18.70;90.80;;;;;;5016546;28;20456;-92
2021/07/29 02:22:09;;;;;;;2.13;1.65;;;18.70;91.00;;;;;;5016858;28;20033;-91
2021/07/29 02:24:34;;;;;;;2.90;1.52;;;18.60;91.20;;;;;;5015955;28;20080;-91
2021/07/29 02:27:00;;;;;;;2.13;1.63;;;18.50;91.50;;;;;;5016571;28;20177;-92
2021/07/29 02:29:26;;;;;;;3.38;1.70;;;18.50;91.70;;;;;;5017476;28;20025;-92
2021/07/29 02:31:51;;;;;;;4.68;1.77;;;18.50;91.80;;;;;;5015749;28;20022;-92
2021/07/29 02:34:17;;;;;;;2.78;1.50;;;18.50;91.50;;;;;;5016196;28;20426;-90
2021/07/29 02:36:42;;;;;;;3.00;1.85;;;18.50;91.60;;;;;;5016099;28;20041;-94
2021/07/29 02:39:08;;;;;;;5.40;1.98;;;18.50;91.70;;;;;;5016346;28;20519;-93
2021/07/29 02:41:35;;;;;;;5.88;1.70;;;18.40;91.80;;;;;;5016003;28;20026;-94
2021/07/29 02:44:01;;;;;;;3.55;1.75;;;18.40;91.80;;;;;;5016080;28;20125;-93
2021/07/29 02:46:28;;;;;;;2.80;1.88;;;18.40;91.80;;;;;;5016882;28;20069;-93
2021/07/29 02:48:54;;;;;;;3.90;1.90;;;18.50;91.90;;;;;;5015873;28;20030;-93
2021/07/29 02:51:20;;;;;;;2.63;1.65;;;18.40;91.90;;;;;;5016019;28;20026;-94
2021/07/29 02:53:45;;;;;;;3.97;1.55;;;18.40;92.10;;;;;;5015213;28;20029;-93
2021/07/29 02:56:11;;;;;;;3.92;1.65;;;18.30;92.20;;;;;;5016713;28;20429;-93
2021/07/29 02:58:37;;;;;;;4.20;2.00;;;18.40;92.20;;;;;;5015475;28;20438;-91
2021/07/29 03:01:03;;;;;;;2.05;1.60;;;18.40;92.10;;;;;;5017183;28;20390;-92
2021/07/29 03:03:30;;;;;;;2.83;1.58;;;18.40;92.10;;;;;;5016994;28;20111;-93
2021/07/29 03:05:55;;;;;;;1.83;1.52;;;18.40;91.80;;;;;;5017940;28;20117;-92
2021/07/29 03:08:21;;;;;;;2.88;1.67;;;18.50;91.70;;;;;;5020822;28;20120;-93
2021/07/29 03:10:47;;;;;;;3.85;1.60;;;18.50;91.60;;;;;;5016112;28;20026;-93
2021/07/29 03:13:13;;;;;;;3.35;1.55;;;18.60;91.50;;;;;;5016563;28;20034;-94
2021/07/29 03:15:39;;;;;;;2.50;1.55;;;18.60;91.30;;;;;;5014891;28;20064;-92
2021/07/29 03:18:05;;;;;;;3.00;1.77;;;18.60;91.20;;;;;;5015710;28;20049;-92
2021/07/29 03:20:31;;;;;;;2.30;1.75;;;18.70;91.10;;;;;;5015503;28;20026;-88
2021/07/29 03:22:56;;;;;;;1.85;1.45;;;18.70;91.00;;;;;;5016571;28;20080;-94
2021/07/29 03:25:22;;;;;;;3.22;1.73;;;18.70;90.90;;;;;;5015369;28;20057;-93
2021/07/29 03:27:47;;;;;;;2.47;1.60;;;18.70;91.00;;;;;;5014566;28;20491;-93
2021/07/29 03:30:13;;;;;;;1.90;1.48;;;18.70;90.90;;;;;;5016158;28;20482;-93
2021/07/29 03:32:39;;;;;;;4.25;1.80;;;18.70;90.90;;;;;;5014651;28;20459;-92
2021/07/29 03:35:04;;;;;;;3.55;1.70;;;18.70;91.10;;;;;;5000407;28;20037;-92
2021/07/29 03:37:30;;;;;;;2.60;1.73;;;18.70;91.10;;;;;;5015107;28;20038;-92
2021/07/29 03:40:03;;;;;;;4.90;1.70;;;18.70;91.10;;;;;;5014846;28;20435;-93
2021/07/29 03:42:34;;;;;;;3.60;1.65;;;18.70;91.10;;;;;;5015444;28;20030;-93
2021/07/29 03:45:00;;;;;;;4.32;1.80;;;18.80;91.10;;;;;;4999477;28;20030;-93
2021/07/29 03:47:26;;;;;;;4.82;1.85;;;18.70;91.20;;;;;;5016155;28;20037;-93
2021/07/29 03:49:53;;;;;;;4.15;2.20;;;18.70;91.20;;;;;;5014732;28;20626;-93
2021/07/29 03:52:19;;;;;;;6.60;2.00;;;18.70;91.30;;;;;;5014990;28;20435;-92
2021/07/29 03:54:44;;;;;;;4.20;1.90;;;18.70;91.40;;;;;;5014838;28;20084;-92
2021/07/29 03:57:10;;;;;;;3.10;1.90;;;18.70;91.30;;;;;;5014441;28;20068;-92
2021/07/29 03:59:37;;;;;;;2.45;1.65;;;18.80;91.30;;;;;;5015550;28;20033;-92
2021/07/29 04:02:09;;;;;;;5.45;1.70;;;18.80;91.40;;;;;;5014651;28;20045;-92
2021/07/29 04:04:39;;;;;;;4.03;2.15;;;18.70;91.50;;;;;;5014639;28;20033;-91
2021/07/29 04:07:06;;;;;;;6.63;1.80;;;18.70;91.60;;;;;;5022866;28;20030;-92
2021/07/29 04:09:32;;;;;;;6.50;1.60;;;18.70;91.70;;;;;;5014714;28;20418;-93
2021/07/29 04:11:58;;;;;;;1.90;1.58;;;18.70;91.80;;;;;;5015705;28;20036;-92
2021/07/29 04:14:24;;;;;;;3.03;1.98;;;18.70;91.90;;;;;;5015312;28;20029;-90
2021/07/29 04:16:56;;;;;;;6.18;2.00;;;18.80;91.80;;;;;;5014788;28;20081;-92
2021/07/29 04:19:22;;;;;;;4.40;1.80;;;18.80;91.80;;;;;;5014596;28;20486;-92
2021/07/29 04:21:49;;;;;;;5.20;1.75;;;18.80;91.80;;;;;;5014006;28;20030;-92
2021/07/29 04:24:15;;;;;;;3.17;2.00;;;18.80;91.80;;;;;;5014384;28;20037;-91
2021/07/29 04:26:41;;;;;;;5.15;1.98;;;18.80;91.80;;;;;;5014860;28;20040;-91
2021/07/29 04:29:07;;;;;;;3.90;1.90;;;18.90;91.60;;;;;;5014430;28;20089;-92
2021/07/29 04:31:33;;;;;;;5.97;2.08;;;18.90;91.60;;;;;;5014321;28;20033;-89
2021/07/29 04:33:59;;;;;;;3.38;1.85;;;18.90;91.60;;;;;;5013605;28;20113;-91
2021/07/29 04:36:24;;;;;;;4.32;2.15;;;18.90;91.50;;;;;;5013731;28;20057;-90
2021/07/29 04:38:50;;;;;;;4.00;1.77;;;18.90;91.40;;;;;;5014273;28;20026;-93
2021/07/29 04:41:15;;;;;;;4.28;1.88;;;19.00;91.50;;;;;;5015005;28;20024;-92
2021/07/29 04:43:41;;;;;;;2.47;1.80;;;19.00;91.10;;;;;;5013639;28;20079;-90
2021/07/29 04:46:07;;;;;;;4.13;1.88;;;19.00;90.90;;;;;;5013625;28;20030;-91
2021/07/29 04:48:33;;;;;;;5.90;1.98;;;19.10;90.90;;;;;;5013358;28;20021;-90
2021/07/29 04:51:05;;;;;;;5.72;2.50;;;19.10;90.80;;;;;;5014802;28;20108;-89
2021/07/29 04:53:34;;;;;;;4.78;1.92;;;19.10;90.70;;;;;;5013804;28;20072;-92
2021/07/29 04:56:01;;;;;;;3.30;2.17;;;19.00;90.70;;;;;;5013632;28;20040;-91
2021/07/29 04:58:27;;;;;;;3.55;2.17;;;19.00;90.60;;;;;;5013694;28;20117;-92
2021/07/29 05:00:53;;;;;;;2.00;1.52;;;19.00;90.50;;;;;;5010021;28;20558;-94
2021/07/29 05:03:18;;;;;;;3.35;1.95;;;19.00;90.50;;;;;;5001125;28;20053;-94
2021/07/29 05:05:44;;;;;;;4.22;2.00;;;19.00;90.40;;;;;;5013338;28;20150;-93
2021/07/29 05:08:09;;;;;;;2.55;1.85;;;19.10;90.20;;;;;;5013800;28;20371;-95
2021/07/29 05:10:35;;;;;;;2.95;1.67;;;19.00;90.10;;;;;;5012833;28;20018;-91
2021/07/29 05:13:01;;;;;;;5.95;2.17;;;19.10;90.20;;;;;;5013594;28;20021;-93
2021/07/29 05:15:26;;;;;;;4.10;2.05;;;19.10;90.10;;;;;;5014332;28;20057;-92
2021/07/29 05:17:55;;;;;;;3.17;1.98;;;19.00;90.00;;;;;;5012900;28;20038;-93
2021/07/29 05:20:22;;;;;;;3.45;1.83;;;19.00;90.10;;;;;;5013207;28;20073;-91
2021/07/29 05:22:48;;;;;;;3.88;1.77;;;19.10;90.10;;;;;;5012960;28;20116;-92
2021/07/29 05:25:22;;;;;;;2.47;1.70;;;19.00;90.00;;;;;;5013478;28;20460;-91
2021/07/29 05:27:51;;;;;;;2.50;1.80;;;19.10;89.80;;;;;;5013759;28;20022;-93
2021/07/29 05:30:17;;;;;;;3.40;1.60;;;19.10;89.50;;;;;;5013202;28;20387;-92
2021/07/29 05:32:43;;;;;;;3.65;1.70;;;19.20;88.90;;;;;;4996510;28;20037;-91
2021/07/29 05:35:09;;;;;;;3.38;1.42;;;19.20;88.80;;;;;;5012742;28;20031;-91
2021/07/29 05:37:34;;;;;;;4.97;1.52;;;19.20;88.70;;;;;;5020841;28;20026;-91
2021/07/29 05:40:00;;;;;;;4.57;1.70;;;19.30;88.90;;;;;;5012986;28;20041;-92
2021/07/29 05:42:26;;;;;;;4.47;1.80;;;19.30;88.50;;;;;;5014052;28;20390;-92
2021/07/29 05:44:51;;;;;;;5.43;1.98;;;19.30;88.40;;;;;;5013969;28;20040;-92
2021/07/29 05:47:17;;;;;;;4.25;1.90;;;19.20;88.20;;;;;;5013180;28;20034;-93
2021/07/29 05:49:43;;;;;;;4.88;1.73;;;19.30;88.20;;;;;;5013615;28;20029;-93
2021/07/29 05:52:08;;;;;;;3.60;2.05;;;19.30;88.30;;;;;;4999233;28;20038;-93
2021/07/29 05:54:34;;;;;;;4.10;2.10;;;19.30;87.90;;;;;;5009280;28;20482;-91
2021/07/29 05:56:59;;;;;;;4.30;1.95;;;19.40;87.70;;;;;;5009719;28;20096;-94
2021/07/29 05:59:25;;;;;;;4.07;2.00;;;19.30;87.60;;;;;;5000494;28;20503;-92
2021/07/29 06:01:51;;;;;;;7.38;2.33;;;19.40;87.60;;;;;;5001116;28;20055;-93
2021/07/29 06:04:16;;;;;;;3.35;1.58;;;19.40;87.20;;;;;;5007546;28;20022;-93
2021/07/29 06:06:42;;;;;;;6.55;2.05;;;19.40;86.70;;;;;;5012232;28;20065;-94
2021/07/29 06:09:07;;;;;;;6.53;1.85;;;19.30;87.00;;;;;;5013717;28;20525;-94
2021/07/29 06:11:33;;;;;;;4.57;1.65;;;19.40;86.30;;;;;;5013791;28;20022;-88
2021/07/29 06:14:00;;;;;;;3.25;1.60;;;19.40;85.80;;;;;;5012943;28;20464;-94
2021/07/29 06:16:26;;;;;;;5.43;1.67;;;19.40;85.70;;;;;;5012440;28;20124;-91
2021/07/29 06:19:05;;;;;;;4.03;1.60;;;19.40;85.60;;;;;;4995657;28;20065;-91
2021/07/29 06:21:35;;;;;;;4.70;1.98;;;19.50;85.20;;;;;;5013847;28;20590;-93
2021/07/29 06:24:01;;;;;;;4.25;1.42;;;19.50;85.00;;;;;;5011792;28;20036;-92
2021/07/29 06:26:27;;;;;;;3.83;1.63;;;19.40;84.80;;;;;;5008569;28;20022;-92
2021/07/29 06:28:53;;;;;;;2.92;1.38;;;19.50;84.20;;;;;;5010259;28;20026;-92
2021/07/29 06:31:19;;;;;;;2.95;1.40;;;19.50;84.10;;;;;;5012136;28;20030;-92
2021/07/29 06:33:45;;;;;;;1.98;1.40;;;19.50;82.70;;;;;;5010269;28;20028;-95
2021/07/29 06:36:10;;;;;;;2.13;1.33;;;19.50;81.60;;;;;;5010128;28;20512;-89
2021/07/29 06:38:38;;;;;;;3.45;1.50;;;19.50;80.50;;;;;;5011318;28;20068;-82
2021/07/29 06:41:05;;;;;;;2.20;1.30;;;19.60;80.30;;;;;;5009118;28;20121;-81
2021/07/29 06:43:31;;;;;;;3.85;1.20;;;19.60;80.30;;;;;;5011623;28;20026;-79
2021/07/29 06:46:03;;;;;;;3.65;1.08;;;19.60;79.70;;;;;;5015766;28;20068;-82
2021/07/29 06:48:28;;;;;;;2.75;1.42;;;19.60;78.70;;;;;;5011472;28;20048;-81
2021/07/29 06:50:54;;;;;;;3.17;1.30;;;19.60;78.90;;;;;;5007270;28;20030;-83
2021/07/29 06:53:19;;;;;;;3.80;1.25;;;19.60;78.00;;;;;;4998770;28;20084;-79
2021/07/29 06:55:45;;;;;;;5.85;1.50;;;19.70;78.30;;;;;;5011016;28;20049;-79
2021/07/29 06:58:11;;;;;;;1.80;1.30;;;19.80;78.20;;;;;;5009021;28;20112;-79
2021/07/29 07:00:36;;;;;;;4.57;1.50;;;19.90;77.80;;;;;;5009811;28;20080;-80
2021/07/29 07:03:02;;;;;;;1.85;1.30;;;19.90;77.00;;;;;;5007803;28;20046;-79
2021/07/29 07:05:28;;;;;;;3.58;1.30;;;19.90;74.70;;;;;;5013510;28;20022;-81
2021/07/29 07:07:53;;;;;;;6.80;1.30;;;20.00;76.00;;;;;;5002812;28;20590;-81
2021/07/29 07:10:19;;;;;;;2.83;1.10;;;20.00;76.40;;;;;;5012141;28;20031;-83
2021/07/29 07:12:45;;;;;;;3.35;1.08;;;20.00;76.00;;;;;;5014711;28;20079;-84
2021/07/29 07:15:11;;;;;;;4.07;1.45;;;20.00;75.30;;;;;;5015249;28;20072;-83
2021/07/29 07:17:37;;;;;;;4.70;1.20;;;20.10;75.60;;;;;;5014211;28;20431;-80
2021/07/29 07:20:03;;;;;;;1.35;1.00;;;20.00;73.40;;;;;;5015817;28;20061;-82
2021/07/29 07:22:28;;;;;;;3.83;1.20;;;19.90;73.60;;;;;;5014858;28;20097;-80
2021/07/29 07:24:54;;;;;;;2.25;1.00;;;19.90;74.30;;;;;;5014464;28;20022;-81
2021/07/29 07:27:20;;;;;;;3.95;1.20;;;19.70;74.40;;;;;;5014461;28;20038;-81
2021/07/29 07:29:45;;;;;;;3.42;1.30;;;19.70;73.30;;;;;;5013525;28;20439;-81
2021/07/29 07:32:11;;;;;;;1.98;1.10;;;19.70;74.10;;;;;;5014651;28;20065;-81
2021/07/29 07:34:36;;;;;;;3.00;1.15;;;19.70;73.90;;;;;;5014190;28;20026;-79
2021/07/29 07:37:02;;;;;;;4.32;1.00;;;19.80;74.80;;;;;;5003942;28;20168;-81
2021/07/29 07:39:28;;;;;;;1.75;0.90;;;19.80;74.40;;;;;;5014119;28;20519;-80
2021/07/29 07:41:56;;;;;;;2.95;1.25;;;19.90;73.50;;;;;;5014306;28;20291;-80
2021/07/29 07:44:22;;;;;;;1.35;0.82;;;19.90;72.20;;;;;;5015681;28;20061;-79
2021/07/29 07:46:48;;;;;;;2.63;1.08;;;19.90;72.70;;;;;;5014638;28;20026;-80
2021/07/29 07:49:14;;;;;;;3.00;1.00;;;19.90;71.70;;;;;;5014037;28;20026;-82
2021/07/29 07:51:41;;;;;;;2.80;1.10;;;19.90;71.70;;;;;;5013014;28;20390;-83
2021/07/29 07:54:07;;;;;;;2.97;1.02;;;19.90;72.50;;;;;;5010013;28;20109;-84
2021/07/29 07:56:33;;;;;;;3.67;1.23;;;19.90;71.60;;;;;;5013256;28;20033;-80
2021/07/29 07:58:59;;;;;;;2.17;1.15;;;20.00;70.40;;;;;;5014497;28;20041;-80
2021/07/29 08:01:24;;;;;;;4.22;1.40;;;20.00;70.70;;;;;;5013621;28;20479;-80
2021/07/29 08:03:50;;;;;;;1.83;1.10;;;20.10;69.80;;;;;;5004794;28;20467;-82
2021/07/29 08:06:15;;;;;;;3.88;1.40;;;20.00;70.90;;;;;;5006271;28;20096;-81
2021/07/29 08:08:42;;;;;;;2.67;1.27;;;20.00;70.50;;;;;;5014084;28;20022;-82
2021/07/29 08:11:09;;;;;;;3.00;1.20;;;20.00;70.80;;;;;;5015350;28;20024;-82
2021/07/29 08:13:35;;;;;;;3.47;1.20;;;20.00;69.20;;;;;;5012903;28;20036;-83
2021/07/29 08:16:01;;;;;;;1.45;1.00;;;20.10;69.50;;;;;;5014461;28;20041;-81
2021/07/29 08:18:28;;;;;;;3.20;1.10;;;20.20;69.20;;;;;;5013262;28;20034;-79
2021/07/29 08:20:54;;;;;;;1.83;1.02;;;20.30;69.90;;;;;;5012865;28;20022;-79
2021/07/29 08:23:19;;;;;;;2.75;1.20;;;20.40;70.90;;;;;;5013351;28;20378;-80
2021/07/29 08:25:45;;;;;;;1.95;0.85;;;20.40;69.40;;;;;;5012985;28;20022;-79
2021/07/29 08:28:11;;;;;;;4.00;1.35;;;20.40;69.10;;;;;;5013368;28;20034;-83
2021/07/29 08:30:37;;;;;;;3.95;1.63;;;20.40;68.60;;;;;;4998659;28;20031;-83
2021/07/29 08:33:10;;;;;;;1.92;1.20;;;20.40;68.40;;;;;;5006833;28;20033;-80
2021/07/29 08:35:39;;;;;;;2.67;1.27;;;20.40;67.90;;;;;;5012474;28;20026;-93
2021/07/29 08:38:05;;;;;;;2.38;1.10;;;20.40;68.50;;;;;;5006456;28;20034;-85
2021/07/29 08:40:30;;;;;;;3.70;1.40;;;20.40;68.20;;;;;;5013125;28;20029;-85
2021/07/29 08:42:58;;;;;;;1.85;1.10;;;20.50;68.30;;;;;;5013564;28;20032;-83
2021/07/29 08:45:23;;;;;;;3.05;1.15;;;20.50;68.70;;;;;;5013262;28;20026;-85
2021/07/29 08:47:56;;;;;;;2.33;1.13;;;20.50;68.70;;;;;;5013061;28;20029;-82
2021/07/29 08:50:23;;;;;;;1.42;1.17;;;20.50;69.10;;;;;;5013535;28;20096;-81
2021/07/29 08:52:50;;;;;;;1.98;1.05;;;20.60;67.60;;;;;;5014137;28;20025;-81
2021/07/29 08:55:16;;;;;;;2.95;1.20;;;20.70;66.10;;;;;;5013388;28;20030;-82
2021/07/29 08:57:42;;;;;;;3.53;1.52;;;20.80;66.30;;;;;;5013524;28;20084;-84
2021/07/29 09:00:13;;;;;;;4.35;1.52;;;20.80;67.00;;;;;;5012967;28;20541;-81
2021/07/29 09:02:39;;;;;;;3.47;1.33;;;20.70;64.10;;;;;;5012958;28;20153;-82
2021/07/29 09:05:11;;;;;;;1.63;1.13;;;20.70;64.40;;;;;;5013628;28;20041;-80
2021/07/29 09:07:37;;;;;;;2.47;1.13;;;20.70;65.50;;;;;;5013130;28;20092;-86
2021/07/29 09:10:23;;;;;;;2.28;1.40;;;20.80;66.70;;;;;;5012444;28;20107;-85
2021/07/29 09:13:11;;;;;;;2.17;1.20;;;20.80;64.30;;;;;;5011930;28;20038;-79
2021/07/29 09:15:38;;;;;;;2.47;1.08;;;20.70;64.40;;;;;;5010599;28;20399;-84
2021/07/29 09:18:04;;;;;;;1.38;1.15;;;20.80;65.10;;;;;;5011409;28;20487;-83
2021/07/29 09:20:30;;;;;;;3.80;1.60;;;20.80;64.40;;;;;;5010084;28;20029;-80
2021/07/29 09:22:56;;;;;;;3.85;1.58;;;20.90;64.70;;;;;;5009369;28;20495;-79
2021/07/29 09:25:28;;;;;;;2.03;1.23;;;20.90;64.80;;;;;;5010983;28;20476;-80
2021/07/29 09:27:54;;;;;;;1.58;1.45;;;20.90;63.10;;;;;;5011528;28;20061;-79
2021/07/29 09:30:38;;;;;;;3.25;1.38;;;20.90;63.40;;;;;;5009874;28;20048;-80
2021/07/29 09:33:07;;;;;;;2.90;1.20;;;21.00;62.20;;;;;;5010439;28;20032;-81
2021/07/29 09:35:45;;;;;;;2.22;1.50;;;21.10;62.70;;;;;;5010124;28;20045;-79
2021/07/29 09:38:33;;;;;;;2.78;1.30;;;21.10;62.40;;;;;;5011637;28;20399;-82
2021/07/29 09:41:06;;;;;;;1.65;1.20;;;21.10;63.40;;;;;;5008755;28;20056;-79
2021/07/29 09:43:34;;;;;;;1.65;1.13;;;21.10;62.50;;;;;;5011347;28;20029;-82
2021/07/29 09:46:25;;;;;;;3.22;1.30;;;21.10;63.30;;;;;;5011134;28;20030;-80
2021/07/29 09:48:51;;;;;;;2.60;1.33;;;21.10;63.20;;;;;;5007629;28;20038;-81
2021/07/29 09:51:17;;;;;;;3.13;1.15;;;21.20;63.00;;;;;;5009364;28;20034;-85
2021/07/29 09:53:44;;;;;;;4.50;1.42;;;21.30;62.00;;;;;;5010814;28;20029;-80
2021/07/29 09:56:11;;;;;;;3.97;1.30;;;21.30;60.80;;;;;;5012660;28;20034;-80
2021/07/29 09:58:39;;;;;;;2.58;1.40;;;21.40;62.20;;;;;;5011213;28;20025;-89
2021/07/29 10:01:10;;;;;;;3.03;1.15;;;21.50;61.50;;;;;;5009337;28;20390;-80
2021/07/29 10:03:43;;;;;;;3.00;1.30;;;21.50;60.90;;;;;;5011799;28;20068;-86
2021/07/29 10:06:15;;;;;;;1.88;1.20;;;21.60;60.10;;;;;;5010537;28;20033;-86
2021/07/29 10:08:46;;;;;;;3.22;1.48;;;21.70;59.90;;;;;;5012231;28;20026;-83
2021/07/29 10:11:15;;;;;;;5.75;1.23;;;21.90;60.40;;;;;;5010210;28;20018;-83
2021/07/29 10:13:41;;;;;;;3.80;1.20;;;22.10;58.80;;;;;;5011334;28;20034;-84
2021/07/29 10:16:17;;;;;;;1.70;0.93;;;22.20;58.00;;;;;;5011752;28;20129;-82
2021/07/29 10:18:52;;;;;;;3.33;1.27;;;22.20;57.90;;;;;;5009230;28;20034;-84
2021/07/29 10:21:25;;;;;;;1.90;1.20;;;22.30;58.30;;;;;;5011918;28;20034;-84
2021/07/29 10:23:53;;;;;;;3.53;1.38;;;22.30;57.30;;;;;;5009450;28;20543;-81
2021/07/29 10:26:19;;;;;;;3.25;1.35;;;22.20;58.40;;;;;;5009704;28;20038;-84
2021/07/29 10:28:44;;;;;;;2.63;1.20;;;22.20;57.80;;;;;;5011374;28;20481;-86
2021/07/29 10:31:12;;;;;;;2.33;1.40;;;22.20;58.00;;;;;;5011944;28;20108;-85
2021/07/29 10:33:39;;;;;;;1.92;1.40;;;22.20;58.60;;;;;;5007397;28;20026;-87
2021/07/29 10:36:06;;;;;;;2.63;0.95;;;22.30;59.30;;;;;;5009233;28;20036;-84
2021/07/29 10:38:38;;;;;;;2.80;1.27;;;22.20;59.60;;;;;;5014440;28;20501;-83
2021/07/29 10:41:07;;;;;;;3.65;1.10;;;22.20;59.70;;;;;;5015355;28;20471;-83
2021/07/29 10:43:32;;;;;;;1.75;1.13;;;22.10;59.20;;;;;;5015058;28;20029;-83
2021/07/29 10:46:01;;;;;;;1.83;1.15;;;22.00;59.10;;;;;;5015977;28;20293;-83
2021/07/29 10:48:45;;;;;;;1.52;1.10;;;22.00;59.30;;;;;;5010751;28;20021;-82
2021/07/29 10:51:22;;;;;;;3.03;1.40;;;22.00;59.80;;;;;;5010770;28;20026;-80
2021/07/29 10:53:57;;;;;;;2.90;1.05;;;22.00;60.00;;;;;;5011606;28;20438;-93
2021/07/29 10:56:25;;;;;;;2.13;1.30;;;22.00;58.80;;;;;;5014086;28;20052;-91
2021/07/29 10:58:54;;;;;;;2.35;1.45;;;22.00;59.10;;;;;;5014644;28;20025;-93
2021/07/29 11:01:21;;;;;;;4.43;1.23;;;21.90;59.50;;;;;;5015250;28;20030;-91
2021/07/29 11:03:58;;;;;;;3.33;1.20;;;21.80;60.00;;;;;;5016084;28;20041;-92
2021/07/29 11:06:25;;;;;;;3.38;1.40;;;21.80;60.20;;;;;;5015554;28;20080;-93
2021/07/29 11:08:52;;;;;;;2.50;1.45;;;21.90;59.90;;;;;;5014810;28;20060;-92
2021/07/29 11:11:18;;;;;;;2.15;1.65;;;22.10;59.90;;;;;;5015424;28;20033;-92
2021/07/29 11:13:48;;;;;;;2.30;1.17;;;22.30;57.40;;;;;;5015068;28;20026;-87
2021/07/29 11:16:15;;;;;;;2.90;1.30;;;22.40;58.50;;;;;;5015132;28;20038;-87
2021/07/29 11:18:41;;;;;;;1.48;1.27;;;22.40;58.60;;;;;;5014983;28;20026;-85
2021/07/29 11:21:16;;;;;;;2.17;1.10;;;22.40;60.30;;;;;;5031638;28;20041;-85
2021/07/29 11:23:43;;;;;;;2.95;1.30;;;22.60;57.70;;;;;;5014537;28;20026;-85
2021/07/29 11:26:09;;;;;;;1.98;1.30;;;22.60;58.30;;;;;;5014720;28;20087;-82
2021/07/29 11:28:35;;;;;;;2.30;1.20;;;22.60;57.90;;;;;;5015012;28;20030;-82
2021/07/29 11:31:01;;;;;;;2.67;1.20;;;22.60;58.70;;;;;;5014537;28;20034;-82
2021/07/29 11:33:29;;;;;;;2.75;1.48;;;22.80;58.10;;;;;;5014922;28;20028;-82
2021/07/29 11:36:04;;;;;;;3.15;1.40;;;22.90;58.20;;;;;;5014188;28;20022;-85
2021/07/29 11:38:30;;;;;;;3.45;1.17;;;22.80;56.90;;;;;;5015398;28;20030;-84
2021/07/29 11:41:03;;;;;;;3.15;1.27;;;22.80;55.90;;;;;;5010944;28;20093;-85
2021/07/29 11:43:33;;;;;;;2.88;1.20;;;22.90;57.10;;;;;;5012716;28;20064;-84
2021/07/29 11:46:10;;;;;;;3.38;1.10;;;23.10;57.20;;;;;;5013664;28;20125;-86
2021/07/29 11:48:36;;;;;;;2.67;1.42;;;23.30;54.90;;;;;;5011385;28;20475;-85
2021/07/29 11:51:11;;;;;;;2.17;1.10;;;23.40;54.60;;;;;;5008316;28;20054;-83
2021/07/29 11:53:41;;;;;;;5.60;1.40;;;23.40;54.50;;;;;;5009861;28;20029;-83
2021/07/29 11:56:08;;;;;;;2.10;1.33;;;23.30;55.00;;;;;;5011068;28;20030;-81
2021/07/29 11:58:39;;;;;;;3.55;1.40;;;23.10;55.70;;;;;;5013801;28;20088;-83
2021/07/29 12:01:12;;;;;;;3.28;1.23;;;23.00;56.40;;;;;;5008025;28;20559;-83
2021/07/29 12:03:47;;;;;;;3.58;1.17;;;22.90;56.40;;;;;;5009262;28;20104;-81
2021/07/29 12:06:16;;;;;;;1.60;1.20;;;23.10;56.00;;;;;;5006058;28;20422;-87
2021/07/29 12:08:42;;;;;;;2.17;1.27;;;23.30;54.90;;;;;;5013741;28;20022;-89
2021/07/29 12:11:09;;;;;;;1.42;1.10;;;23.50;54.40;;;;;;5009650;28;20023;-85
2021/07/29 12:13:39;;;;;;;2.22;1.13;;;23.60;53.60;;;;;;5015111;28;20022;-86
2021/07/29 12:16:05;;;;;;;2.97;1.30;;;23.60;53.60;;;;;;5013111;28;20624;-85
2021/07/29 12:18:30;;;;;;;2.55;1.33;;;23.50;54.20;;;;;;5013077;28;20121;-78
2021/07/29 12:20:57;;;;;;;3.00;1.20;;;23.60;54.10;;;;;;4996626;28;20101;-78
2021/07/29 12:23:24;;;;;;;2.47;1.10;;;23.60;53.90;;;;;;5013625;28;20022;-82
2021/07/29 12:25:51;;;;;;;4.00;1.17;;;23.70;53.80;;;;;;5013335;28;20463;-82
2021/07/29 12:28:54;;;;;;;2.92;1.25;;;23.70;54.40;;;;;;5013274;28;20034;-82
2021/07/29 12:31:25;;;;;;;1.73;1.10;;;23.70;53.50;;;;;;5013337;28;20092;-82
2021/07/29 12:34:01;;;;;;;;;;;23.80;53.30;;;;;;5011813;28;20118;-79
2021/07/29 12:36:47;;;;;;;2.08;1.13;;;23.90;52.30;;;;;;5010840;28;19915;-81
2021/07/29 12:39:15;;;;;;;2.25;1.00;;;24.00;52.90;;;;;;5003104;28;20057;-80
2021/07/29 12:41:42;;;;;;;2.17;1.23;;;24.10;52.30;;;;;;5012756;28;20387;-79
2021/07/29 12:44:16;;;;;;;1.95;1.20;;;24.30;52.30;;;;;;5013453;28;20033;-80
2021/07/29 12:46:43;;;;;;;1.30;1.20;;;24.50;51.50;;;;;;5012833;28;20104;-81
2021/07/29 12:49:09;;;;;;;3.38;1.40;;;24.60;52.00;;;;;;5012930;28;20022;-81
2021/07/29 12:51:40;;;;;;;1.92;1.35;;;24.70;50.90;;;;;;5012742;28;20033;-83